Time;durP1;ratioP1;P1;durP2;ratioP2;P2;SDS_P1;SDS_P2;PMS_P1;PMS_P2;Temp;Humidity;BMP_temperature;BMP_pressure;BME280_temperature;BME280_humidity;BME280_pressure;Samples;Min_cycle;Max_cycle;Signal;HPM_P1;HPM_P2
2022/08/17 00:00:33;;;;;;;5.07;3.30;;;24.80;67.50;;;;;;6126770;23;20006;-73
2022/08/17 00:03:08;;;;;;;5.05;2.58;;;24.70;67.40;;;;;;6127077;23;20038;-68
2022/08/17 00:05:38;;;;;;;6.05;3.60;;;24.70;68.00;;;;;;6126842;23;20013;-68
2022/08/17 00:08:04;;;;;;;5.03;2.55;;;24.70;68.10;;;;;;6126262;23;20445;-68
2022/08/17 00:10:30;;;;;;;7.30;3.20;;;24.60;68.10;;;;;;6126674;23;20388;-68
2022/08/17 00:12:56;;;;;;;4.93;2.95;;;24.60;68.10;;;;;;6126285;23;20089;-68
2022/08/17 00:15:22;;;;;;;8.43;3.10;;;24.60;68.20;;;;;;6125773;23;20069;-68
2022/08/17 00:17:50;;;;;;;4.63;2.72;;;24.60;68.30;;;;;;6126165;23;20006;-68
2022/08/17 00:20:17;;;;;;;5.88;3.20;;;24.60;68.40;;;;;;6126515;23;20332;-68
2022/08/17 00:22:42;;;;;;;6.55;2.92;;;24.50;68.40;;;;;;6126662;23;20341;-68
2022/08/17 00:25:15;;;;;;;5.63;2.80;;;24.50;68.50;;;;;;6126799;23;20006;-67
2022/08/17 00:27:41;;;;;;;5.97;2.80;;;24.50;68.80;;;;;;6126910;23;20080;-68
2022/08/17 00:30:09;;;;;;;6.25;2.72;;;24.50;68.70;;;;;;6126647;23;20437;-67
2022/08/17 00:32:45;;;;;;;6.53;2.88;;;24.50;68.60;;;;;;6126137;23;20201;-68
2022/08/17 00:35:14;;;;;;;4.25;2.80;;;24.50;68.60;;;;;;6126022;23;20008;-68
2022/08/17 00:37:40;;;;;;;6.00;2.80;;;24.50;68.70;;;;;;6126429;23;20009;-68
2022/08/17 00:40:08;;;;;;;4.85;3.13;;;24.40;69.00;;;;;;6126241;23;20407;-68
2022/08/17 00:42:34;;;;;;;6.72;2.80;;;24.40;69.00;;;;;;6125891;23;19998;-68
2022/08/17 00:45:00;;;;;;;4.90;2.78;;;24.40;69.00;;;;;;6126009;23;20429;-68
2022/08/17 00:47:26;;;;;;;8.57;3.05;;;24.40;69.00;;;;;;6126535;23;20013;-67
2022/08/17 00:49:52;;;;;;;8.70;3.17;;;24.40;68.90;;;;;;6126201;23;20014;-75
2022/08/17 00:52:21;;;;;;;6.38;3.13;;;24.30;68.90;;;;;;6125568;23;20421;-67
2022/08/17 00:54:51;;;;;;;5.53;2.90;;;24.30;69.10;;;;;;6126318;23;20037;-67
2022/08/17 00:57:22;;;;;;;6.25;3.40;;;24.30;69.00;;;;;;6126206;23;20006;-68
2022/08/17 00:59:51;;;;;;;7.67;2.90;;;24.30;69.10;;;;;;6122264;23;20044;-68
2022/08/17 01:02:18;;;;;;;5.53;2.63;;;24.30;69.20;;;;;;6123222;23;20061;-68
2022/08/17 01:04:48;;;;;;;8.63;3.08;;;24.30;69.30;;;;;;6123867;23;19998;-68
2022/08/17 01:07:15;;;;;;;5.80;2.97;;;24.30;69.40;;;;;;6125359;23;20013;-68
2022/08/17 01:09:41;;;;;;;5.07;2.70;;;24.20;69.40;;;;;;6125727;23;20006;-68
2022/08/17 01:12:09;;;;;;;7.18;2.50;;;24.20;69.30;;;;;;6125592;23;20038;-68
2022/08/17 01:14:35;;;;;;;5.20;2.70;;;24.20;69.20;;;;;;6125646;23;20009;-67
2022/08/17 01:17:01;;;;;;;7.38;3.13;;;24.20;69.20;;;;;;6126105;23;20432;-68
2022/08/17 01:19:30;;;;;;;5.15;3.10;;;24.20;69.20;;;;;;6126185;23;20111;-68
2022/08/17 01:21:58;;;;;;;6.15;2.75;;;24.20;69.60;;;;;;6125542;23;20021;-68
2022/08/17 01:24:24;;;;;;;9.07;3.08;;;24.20;69.60;;;;;;6125888;23;20417;-68
2022/08/17 01:26:50;;;;;;;5.25;2.90;;;24.20;69.60;;;;;;6125907;23;20056;-68
2022/08/17 01:29:17;;;;;;;8.18;3.30;;;24.10;69.40;;;;;;6125782;23;20434;-68
2022/08/17 01:31:46;;;;;;;7.47;3.13;;;24.10;69.40;;;;;;6125953;23;20002;-67
2022/08/17 01:34:15;;;;;;;6.22;3.30;;;24.10;69.60;;;;;;6125831;23;20512;-68
2022/08/17 01:36:45;;;;;;;5.55;3.00;;;24.10;69.80;;;;;;6126100;23;20010;-67
2022/08/17 01:39:36;;;;;;;8.40;3.03;;;24.00;70.00;;;;;;6126010;23;20021;-67
2022/08/17 01:42:14;;;;;;;6.70;2.90;;;24.00;70.10;;;;;;6125756;23;20430;-67
2022/08/17 01:44:40;;;;;;;8.15;3.05;;;24.10;70.00;;;;;;6125660;23;20065;-67
2022/08/17 01:47:06;;;;;;;5.53;3.00;;;24.00;70.00;;;;;;6125848;23;20009;-67
2022/08/17 01:49:32;;;;;;;6.30;3.60;;;24.00;70.00;;;;;;6125894;23;20392;-67
2022/08/17 01:52:05;;;;;;;6.63;3.25;;;24.00;69.90;;;;;;6126454;23;20380;-75
2022/08/17 01:54:30;;;;;;;7.72;3.03;;;24.00;69.90;;;;;;6127950;23;20046;-67
2022/08/17 01:56:56;;;;;;;8.25;2.97;;;23.90;70.00;;;;;;6127824;23;20014;-67
2022/08/17 01:59:22;;;;;;;5.25;2.90;;;23.90;70.20;;;;;;6127959;23;19998;-67
2022/08/17 02:01:48;;;;;;;8.45;2.92;;;23.90;70.30;;;;;;6127554;23;20013;-67
2022/08/17 02:04:13;;;;;;;6.03;3.20;;;23.90;70.50;;;;;;6127650;23;20488;-67
2022/08/17 02:06:42;;;;;;;6.22;3.15;;;23.80;70.60;;;;;;6127468;23;20084;-67
2022/08/17 02:09:09;;;;;;;7.07;3.00;;;23.80;70.70;;;;;;6127428;23;20022;-67
2022/08/17 02:11:39;;;;;;;6.63;2.83;;;23.80;70.80;;;;;;6127924;23;20102;-67
2022/08/17 02:14:09;;;;;;;6.40;3.03;;;23.80;70.80;;;;;;6127832;23;20044;-67
2022/08/17 02:16:39;;;;;;;6.97;3.17;;;23.80;70.90;;;;;;6127414;23;20002;-67
2022/08/17 02:19:08;;;;;;;7.70;3.20;;;23.80;70.90;;;;;;6127856;23;20014;-67
2022/08/17 02:21:37;;;;;;;9.88;3.33;;;23.80;70.90;;;;;;6127551;23;20006;-67
2022/08/17 02:24:05;;;;;;;5.20;3.42;;;23.70;70.90;;;;;;6127728;23;20052;-65
2022/08/17 02:26:31;;;;;;;6.97;2.85;;;23.70;70.90;;;;;;6127613;23;20084;-66
2022/08/17 02:28:56;;;;;;;10.80;2.88;;;23.70;70.90;;;;;;6127741;23;20009;-67
2022/08/17 02:31:22;;;;;;;7.55;2.78;;;23.70;70.70;;;;;;6127566;23;20042;-67
2022/08/17 02:33:48;;;;;;;5.65;3.20;;;23.70;70.70;;;;;;6127766;23;20045;-67
2022/08/17 02:36:13;;;;;;;7.78;3.88;;;23.70;70.70;;;;;;6127347;23;20053;-67
2022/08/17 02:38:40;;;;;;;9.90;3.40;;;23.70;70.80;;;;;;6127575;23;20489;-67
2022/08/17 02:41:06;;;;;;;5.85;3.55;;;23.60;70.90;;;;;;6127371;23;20346;-67
2022/08/17 02:43:32;;;;;;;7.10;2.92;;;23.60;71.10;;;;;;6127568;23;19998;-67
2022/08/17 02:45:58;;;;;;;6.35;3.30;;;23.60;71.00;;;;;;6127101;23;20006;-67
2022/08/17 02:48:23;;;;;;;9.30;3.22;;;23.60;70.70;;;;;;6127253;23;19998;-67
2022/08/17 02:50:49;;;;;;;9.50;2.92;;;23.50;70.80;;;;;;6127444;23;20006;-67
2022/08/17 02:53:15;;;;;;;5.25;3.38;;;23.60;71.00;;;;;;6127046;23;20093;-67
2022/08/17 02:55:41;;;;;;;11.32;3.50;;;23.50;71.00;;;;;;6127424;23;19998;-67
2022/08/17 02:58:09;;;;;;;7.65;3.38;;;23.50;71.20;;;;;;6127085;23;20006;-67
2022/08/17 03:00:40;;;;;;;5.72;3.30;;;23.50;71.30;;;;;;6127794;23;20051;-67
2022/08/17 03:03:07;;;;;;;6.80;3.22;;;23.50;71.40;;;;;;6127181;23;20006;-67
2022/08/17 03:05:35;;;;;;;5.55;3.30;;;23.40;71.50;;;;;;6127237;23;20383;-67
2022/08/17 03:08:04;;;;;;;7.55;3.45;;;23.40;71.50;;;;;;6127373;23;20014;-67
2022/08/17 03:10:29;;;;;;;8.23;3.10;;;23.40;71.70;;;;;;6127278;23;19998;-67
2022/08/17 03:12:56;;;;;;;11.95;3.55;;;23.40;71.70;;;;;;6126592;23;20022;-66
2022/08/17 03:15:27;;;;;;;8.02;3.30;;;23.40;71.70;;;;;;6126999;23;20009;-67
2022/08/17 03:17:55;;;;;;;7.72;3.58;;;23.40;71.90;;;;;;6126958;23;20029;-67
2022/08/17 03:20:22;;;;;;;13.68;3.55;;;23.40;72.10;;;;;;6127059;23;20101;-67
2022/08/17 03:22:50;;;;;;;8.75;3.63;;;23.40;72.30;;;;;;6126736;23;20001;-67
2022/08/17 03:25:22;;;;;;;7.35;3.38;;;23.40;72.50;;;;;;6126888;23;20065;-67
2022/08/17 03:27:49;;;;;;;5.55;3.38;;;23.40;72.50;;;;;;6126841;23;20041;-67
2022/08/17 03:30:14;;;;;;;7.38;3.42;;;23.40;72.40;;;;;;6127045;23;20062;-67
2022/08/17 03:32:46;;;;;;;6.97;3.20;;;23.40;72.40;;;;;;6127133;23;20022;-67
2022/08/17 03:35:14;;;;;;;8.07;3.90;;;23.40;72.50;;;;;;6127079;23;20343;-76
2022/08/17 03:37:40;;;;;;;7.05;3.65;;;23.30;72.70;;;;;;6127026;23;20001;-67
2022/08/17 03:40:07;;;;;;;12.00;4.75;;;23.30;72.90;;;;;;6126777;23;20033;-67
2022/08/17 03:42:34;;;;;;;9.07;3.47;;;23.30;73.20;;;;;;6126768;23;20036;-67
2022/08/17 03:45:01;;;;;;;6.63;3.95;;;23.30;73.30;;;;;;6126859;23;20303;-67
2022/08/17 03:58:12;;;;;;;9.32;3.70;;;23.30;73.90;;;;;;6126640;23;20017;-67
2022/08/17 04:00:44;;;;;;;6.68;3.95;;;23.30;73.90;;;;;;6127055;23;20010;-66
2022/08/17 04:03:10;;;;;;;5.38;3.17;;;23.30;73.90;;;;;;6126549;23;20016;-66
2022/08/17 04:05:35;;;;;;;6.28;3.38;;;23.30;73.80;;;;;;6126648;23;19998;-66
2022/08/17 04:08:01;;;;;;;6.90;3.03;;;23.30;73.30;;;;;;6126233;23;20001;-67
2022/08/17 04:10:29;;;;;;;4.63;3.03;;;23.20;72.80;;;;;;6126379;23;20014;-67
2022/08/17 04:12:57;;;;;;;5.90;3.35;;;23.20;72.60;;;;;;6126307;23;20024;-67
2022/08/17 04:15:23;;;;;;;7.60;3.88;;;23.20;72.70;;;;;;6126409;23;20061;-66
2022/08/17 04:17:50;;;;;;;5.57;3.30;;;23.20;72.60;;;;;;6126215;23;20006;-67
2022/08/17 04:20:17;;;;;;;7.70;3.30;;;23.10;72.40;;;;;;6100551;23;20389;-66
2022/08/17 04:23:03;;;;;;;7.65;3.65;;;23.10;72.50;;;;;;6126387;23;20009;-67
2022/08/17 04:25:31;;;;;;;7.22;3.65;;;23.00;72.50;;;;;;6126611;23;20076;-67
2022/08/17 04:27:57;;;;;;;7.68;3.33;;;23.00;72.50;;;;;;6126606;23;20073;-67
2022/08/17 04:30:25;;;;;;;8.73;3.17;;;23.00;72.60;;;;;;6126340;23;20028;-66
2022/08/17 04:32:55;;;;;;;9.40;3.47;;;22.90;73.40;;;;;;6126146;23;20050;-67
2022/08/17 04:35:23;;;;;;;4.93;3.35;;;22.90;73.10;;;;;;6126104;23;20006;-67
2022/08/17 04:37:50;;;;;;;9.57;3.50;;;22.90;73.20;;;;;;6126535;23;20002;-67
2022/08/17 04:43:08;;;;;;;7.88;3.70;;;22.80;73.40;;;;;;6126310;23;20456;-66
2022/08/17 04:45:38;;;;;;;8.90;3.40;;;22.80;73.60;;;;;;6126078;23;20020;-66
2022/08/17 04:48:04;;;;;;;4.53;3.17;;;22.80;73.70;;;;;;6126369;23;20081;-67
2022/08/17 04:50:30;;;;;;;7.68;3.35;;;22.90;73.80;;;;;;6126134;23;20030;-67
2022/08/17 04:52:55;;;;;;;9.60;3.72;;;22.80;73.80;;;;;;6126505;23;20018;-67
2022/08/17 04:55:21;;;;;;;12.15;4.30;;;22.80;73.80;;;;;;6125960;23;20329;-67
2022/08/17 04:57:47;;;;;;;9.20;4.53;;;22.80;73.90;;;;;;6126097;23;20013;-67
2022/08/17 05:00:13;;;;;;;8.65;3.65;;;22.80;74.00;;;;;;6126333;23;20006;-77
2022/08/17 05:02:46;;;;;;;12.10;3.80;;;22.80;74.00;;;;;;6125954;23;20422;-67
2022/08/17 05:05:16;;;;;;;9.23;4.10;;;22.90;74.00;;;;;;6125974;23;20017;-67
2022/08/17 05:07:42;;;;;;;14.02;4.00;;;22.90;74.20;;;;;;6125906;23;20009;-67
2022/08/17 05:10:08;;;;;;;9.15;4.07;;;22.90;74.20;;;;;;6125977;23;20006;-67
2022/08/17 05:12:34;;;;;;;11.13;4.03;;;22.90;74.20;;;;;;6125841;23;20425;-67
2022/08/17 05:15:00;;;;;;;9.15;3.90;;;22.90;74.20;;;;;;6126349;23;20010;-67
2022/08/17 05:17:25;;;;;;;7.85;4.10;;;22.90;74.10;;;;;;6126308;23;20021;-67
2022/08/17 05:19:51;;;;;;;5.60;3.67;;;23.00;74.10;;;;;;6125950;23;19998;-66
2022/08/17 05:22:16;;;;;;;9.57;4.10;;;23.00;74.00;;;;;;6125964;23;19998;-67
2022/08/17 05:24:42;;;;;;;6.72;3.80;;;23.00;74.10;;;;;;6126247;23;20084;-66
2022/08/17 05:27:08;;;;;;;9.73;4.15;;;23.10;74.30;;;;;;6126477;23;20435;-67
2022/08/17 05:29:33;;;;;;;9.07;3.80;;;23.10;74.60;;;;;;6128037;23;20310;-77
2022/08/17 05:32:10;;;;;;;8.05;4.63;;;23.10;74.50;;;;;;6127720;23;20013;-67
2022/08/17 05:34:35;;;;;;;10.90;3.92;;;23.10;74.40;;;;;;6127574;23;20013;-67
2022/08/17 05:37:01;;;;;;;7.82;4.15;;;23.20;74.40;;;;;;6127839;23;20009;-79
2022/08/17 05:39:27;;;;;;;9.95;4.18;;;23.20;74.50;;;;;;6128004;23;20028;-67
2022/08/17 05:41:53;;;;;;;8.27;3.88;;;23.20;74.80;;;;;;6128091;23;20080;-66
2022/08/17 05:44:18;;;;;;;10.45;4.13;;;23.20;74.80;;;;;;6128196;23;20014;-66
2022/08/17 05:46:51;;;;;;;8.13;4.28;;;23.20;75.00;;;;;;6127438;23;20002;-63
2022/08/17 05:49:23;;;;;;;8.60;4.00;;;23.30;75.00;;;;;;6127814;23;20445;-69
2022/08/17 05:52:17;;;;;;;8.68;3.75;;;23.30;74.70;;;;;;6127420;23;20429;-77
2022/08/17 05:54:54;;;;;;;10.85;4.57;;;23.30;74.70;;;;;;6127439;23;20014;-66
2022/08/17 05:57:32;;;;;;;8.57;4.70;;;23.40;74.90;;;;;;6127327;23;20006;-66
2022/08/17 06:00:22;;;;;;;12.30;4.50;;;23.40;75.10;;;;;;6127749;23;20049;-78
2022/08/17 06:03:15;;;;;;;8.27;4.50;;;23.40;75.10;;;;;;6127500;23;20076;-67
2022/08/17 06:05:56;;;;;;;11.45;4.53;;;23.50;75.20;;;;;;6127790;23;20457;-66
2022/08/17 06:08:31;;;;;;;6.43;4.00;;;23.50;75.10;;;;;;6127377;23;20010;-68
2022/08/17 06:11:00;;;;;;;9.85;4.38;;;23.60;75.10;;;;;;6126886;23;20002;-68
2022/08/17 06:13:48;;;;;;;9.43;4.10;;;23.60;75.00;;;;;;6126809;23;20022;-72
2022/08/17 06:16:19;;;;;;;9.18;4.30;;;23.70;74.90;;;;;;6127831;23;20001;-68
2022/08/17 06:19:08;;;;;;;11.23;4.95;;;23.70;74.90;;;;;;6128105;23;20020;-68
2022/08/17 06:21:39;;;;;;;9.38;4.53;;;23.80;74.80;;;;;;6126810;23;20006;-68
2022/08/17 06:24:16;;;;;;;7.15;4.20;;;23.80;74.50;;;;;;6127501;23;20016;-75
2022/08/17 06:26:44;;;;;;;11.25;4.55;;;23.90;74.40;;;;;;6126205;23;20303;-67
2022/08/17 06:29:29;;;;;;;9.20;4.05;;;23.90;74.30;;;;;;6127517;23;20009;-67
2022/08/17 06:31:56;;;;;;;10.13;4.25;;;23.90;74.10;;;;;;6068092;23;20014;-68
2022/08/17 06:34:22;;;;;;;10.38;4.43;;;24.00;74.00;;;;;;6127454;23;20430;-67
2022/08/17 06:37:08;;;;;;;12.93;5.43;;;24.00;73.90;;;;;;6127601;23;20133;-68
2022/08/17 06:40:03;;;;;;;8.10;4.07;;;24.10;73.70;;;;;;6126874;23;20021;-67
2022/08/17 06:42:46;;;;;;;13.85;4.45;;;24.10;73.30;;;;;;6127617;23;20010;-68
2022/08/17 06:45:30;;;;;;;8.40;4.15;;;24.20;73.20;;;;;;6127589;23;20042;-68
2022/08/17 06:48:14;;;;;;;8.77;4.60;;;24.20;73.00;;;;;;6127422;23;20014;-68
2022/08/17 06:50:58;;;;;;;7.90;4.20;;;24.30;72.80;;;;;;6127805;23;20041;-67
2022/08/17 06:53:43;;;;;;;10.20;3.97;;;24.30;72.60;;;;;;6127603;23;20021;-68
2022/08/17 06:56:12;;;;;;;10.98;4.22;;;24.30;72.40;;;;;;6127626;23;20337;-68
2022/08/17 06:58:42;;;;;;;9.95;3.60;;;24.40;72.30;;;;;;6127372;23;20426;-67
2022/08/17 07:01:15;;;;;;;9.77;3.80;;;24.50;72.20;;;;;;6127174;23;20002;-68
2022/08/17 07:03:56;;;;;;;6.03;3.55;;;24.50;72.00;;;;;;6127502;23;20001;-68
2022/08/17 07:06:27;;;;;;;9.27;3.78;;;24.50;71.80;;;;;;6127249;23;20061;-68
2022/08/17 07:08:55;;;;;;;7.37;3.60;;;24.60;71.60;;;;;;6127507;23;20040;-68
2022/08/17 07:11:33;;;;;;;13.85;3.97;;;24.60;71.40;;;;;;6127793;23;20010;-68
2022/08/17 07:14:17;;;;;;;8.75;4.07;;;24.70;71.30;;;;;;6127175;23;20425;-67
2022/08/17 07:16:50;;;;;;;6.80;3.83;;;24.80;71.30;;;;;;6127173;23;20013;-68
2022/08/17 07:19:19;;;;;;;8.73;4.28;;;24.80;71.10;;;;;;6127259;23;20042;-68
2022/08/17 07:22:00;;;;;;;9.13;4.10;;;24.80;71.10;;;;;;6127142;23;20002;-67
2022/08/17 07:24:42;;;;;;;9.07;4.18;;;24.90;71.30;;;;;;6127146;23;19998;-68
2022/08/17 07:27:10;;;;;;;12.68;4.30;;;24.90;71.30;;;;;;6127240;23;20068;-68
2022/08/17 07:29:45;;;;;;;8.55;4.07;;;25.00;71.30;;;;;;6126919;23;20009;-68
2022/08/17 07:32:16;;;;;;;7.03;3.75;;;25.10;71.20;;;;;;6127173;23;20081;-68
2022/08/17 07:35:07;;;;;;;8.70;4.32;;;25.10;71.80;;;;;;6127016;23;20460;-68
2022/08/17 07:37:35;;;;;;;9.68;4.60;;;25.20;71.20;;;;;;6126804;23;20407;-67
2022/08/17 07:40:25;;;;;;;14.90;4.70;;;25.20;71.30;;;;;;6126707;23;20017;-67
2022/08/17 07:43:04;;;;;;;18.67;4.65;;;25.30;71.50;;;;;;6126950;23;20013;-67
2022/08/17 07:48:23;;;;;;;15.15;4.40;;;25.50;72.10;;;;;;6126910;23;20021;-67
2022/08/17 07:50:51;;;;;;;11.68;4.80;;;25.50;72.40;;;;;;6126773;23;20009;-67
2022/08/17 07:53:22;;;;;;;15.55;4.72;;;25.60;72.30;;;;;;6127205;23;20306;-68
2022/08/17 07:55:50;;;;;;;11.13;4.80;;;25.70;72.40;;;;;;6126751;23;20009;-67
2022/08/17 07:58:17;;;;;;;13.73;4.80;;;25.80;72.60;;;;;;6126962;23;20622;-67
2022/08/17 08:00:44;;;;;;;11.07;4.75;;;25.80;72.60;;;;;;6126550;23;20057;-67
2022/08/17 08:03:26;;;;;;;13.10;4.57;;;25.80;72.30;;;;;;6126541;23;20081;-68
2022/08/17 08:06:01;;;;;;;16.33;5.00;;;25.90;72.40;;;;;;6126680;23;20425;-68
2022/08/17 08:08:41;;;;;;;19.50;4.40;;;26.00;72.00;;;;;;6126658;23;20056;-68
2022/08/17 08:11:26;;;;;;;13.18;4.85;;;26.10;71.90;;;;;;6126735;23;20311;-67
2022/08/17 08:13:52;;;;;;;10.27;4.03;;;26.10;71.50;;;;;;6126535;23;20017;-67
2022/08/17 08:16:23;;;;;;;8.07;4.20;;;26.20;71.20;;;;;;6126696;23;20069;-67
2022/08/17 08:18:54;;;;;;;11.25;4.13;;;26.20;70.80;;;;;;6127213;23;20013;-68
2022/08/17 08:21:27;;;;;;;;;;;26.30;70.50;;;;;;6127096;23;20009;-67
2022/08/17 08:24:31;;;;;;;14.68;4.45;;;26.30;70.10;;;;;;6126590;23;19940;-68
2022/08/17 08:27:14;;;;;;;8.40;3.80;;;26.40;70.10;;;;;;6119946;23;20014;-67
2022/08/17 08:29:55;;;;;;;14.48;4.03;;;26.50;69.90;;;;;;6127102;23;20013;-67
2022/08/17 08:32:37;;;;;;;9.65;4.80;;;26.60;69.80;;;;;;6126565;23;20006;-68
2022/08/17 08:35:08;;;;;;;14.15;5.38;;;26.60;69.90;;;;;;6126683;23;20009;-68
2022/08/17 08:37:37;;;;;;;12.15;5.50;;;26.70;70.10;;;;;;6126476;23;20439;-68
2022/08/17 08:40:12;;;;;;;11.48;4.78;;;26.70;70.00;;;;;;6125986;23;20014;-67
2022/08/17 08:42:43;;;;;;;11.52;4.50;;;26.80;70.00;;;;;;6126705;23;20013;-67
2022/08/17 08:45:32;;;;;;;12.00;5.10;;;26.80;69.80;;;;;;6126504;23;20005;-68
2022/08/17 08:48:20;;;;;;;14.77;6.00;;;26.80;69.50;;;;;;6126319;23;20363;-67
2022/08/17 08:50:58;;;;;;;18.85;5.32;;;26.70;69.50;;;;;;6126464;23;20345;-67
2022/08/17 08:54:12;;;;;;;17.77;4.75;;;26.80;69.70;;;;;;6126038;23;20018;-67
2022/08/17 08:56:49;;;;;;;13.60;5.25;;;26.80;69.90;;;;;;6061862;23;20073;-67
2022/08/17 08:59:44;;;;;;;13.55;4.53;;;26.90;69.80;;;;;;6126406;23;20325;-67
2022/08/17 09:02:43;;;;;;;15.68;4.72;;;27.00;69.70;;;;;;6126205;23;20093;-67
2022/08/17 09:05:20;;;;;;;12.90;4.60;;;27.00;69.50;;;;;;6126079;23;20002;-67
2022/08/17 09:08:13;;;;;;;11.13;4.80;;;27.00;69.30;;;;;;6126771;23;20006;-67
2022/08/17 09:11:01;;;;;;;12.25;4.70;;;27.00;69.30;;;;;;6126085;23;20336;-74
2022/08/17 09:13:38;;;;;;;12.02;4.53;;;27.00;69.60;;;;;;6126102;23;20018;-68
2022/08/17 09:16:14;;;;;;;15.55;4.30;;;27.10;70.10;;;;;;6126269;23;20002;-68
2022/08/17 09:18:50;;;;;;;11.23;4.82;;;27.10;70.00;;;;;;6126291;23;20010;-67
2022/08/17 09:21:28;;;;;;;16.20;5.10;;;27.20;69.90;;;;;;6126693;23;20010;-67
2022/08/17 09:24:18;;;;;;;8.88;4.60;;;27.30;69.90;;;;;;6126797;23;20076;-67
2022/08/17 09:27:02;;;;;;;13.40;4.88;;;27.30;69.90;;;;;;6126862;23;20084;-67
2022/08/17 09:29:34;;;;;;;7.18;4.30;;;27.20;69.70;;;;;;6126379;23;20013;-67
2022/08/17 09:32:07;;;;;;;11.25;4.60;;;27.30;69.80;;;;;;6125894;23;20008;-68
2022/08/17 09:34:42;;;;;;;12.38;4.15;;;27.30;69.60;;;;;;6126378;23;20012;-67
2022/08/17 09:37:28;;;;;;;13.23;4.32;;;27.40;69.10;;;;;;6125961;23;20002;-67
2022/08/17 09:40:25;;;;;;;21.45;5.03;;;27.50;68.50;;;;;;6125903;23;20014;-67
2022/08/17 09:43:13;;;;;;;28.63;4.60;;;27.60;68.00;;;;;;6102946;23;20089;-67
2022/08/17 09:45:49;;;;;;;18.35;4.50;;;27.80;67.70;;;;;;6126415;23;20006;-67
2022/08/17 09:48:22;;;;;;;8.85;3.80;;;27.90;67.20;;;;;;6125882;23;20040;-68
2022/08/17 09:51:05;;;;;;;9.52;3.80;;;28.00;66.50;;;;;;6126072;23;20078;-68
2022/08/17 09:53:34;;;;;;;7.53;3.55;;;28.00;65.90;;;;;;6126004;23;20014;-67
2022/08/17 09:56:23;;;;;;;15.65;3.95;;;28.00;65.10;;;;;;6126521;23;20406;-67
2022/08/17 09:59:10;;;;;;;19.25;4.50;;;28.00;64.90;;;;;;6126396;23;20070;-69
2022/08/17 10:01:46;;;;;;;6.85;3.60;;;28.00;65.10;;;;;;6125987;23;20444;-67
2022/08/17 10:04:31;;;;;;;11.02;4.18;;;28.00;65.30;;;;;;6126256;23;20010;-67
2022/08/17 10:07:08;;;;;;;6.03;3.58;;;28.10;65.30;;;;;;6126180;23;20006;-68
2022/08/17 10:09:46;;;;;;;10.43;3.97;;;28.20;65.20;;;;;;6126136;23;20077;-68
2022/08/17 10:12:30;;;;;;;11.32;3.45;;;28.30;65.10;;;;;;6125773;23;20020;-68
2022/08/17 10:15:35;;;;;;;9.30;3.63;;;28.40;64.50;;;;;;6127540;23;20003;-75
2022/08/17 10:18:29;;;;;;;16.55;4.43;;;28.50;64.10;;;;;;6127897;23;20014;-67
2022/08/17 11:25:00;;;;;;;9.90;3.80;;;29.70;61.70;;;;;;6123036;23;20029;-67
2022/08/17 11:27:31;;;;;;;9.65;4.00;;;29.80;61.10;;;;;;6097818;23;20014;-67
2022/08/17 11:30:01;;;;;;;12.55;3.97;;;29.80;61.10;;;;;;6097837;23;20024;-67
2022/08/17 11:32:26;;;;;;;7.53;3.47;;;29.90;61.10;;;;;;6097636;23;20033;-68
2022/08/17 11:35:19;;;;;;;10.10;3.47;;;29.90;60.60;;;;;;6097624;23;20002;-67
2022/08/17 11:38:06;;;;;;;12.38;4.43;;;29.90;60.00;;;;;;6097762;23;20003;-68
2022/08/17 11:40:56;;;;;;;8.68;3.72;;;29.90;60.40;;;;;;6097537;23;20009;-67
2022/08/17 11:43:54;;;;;;;11.63;3.95;;;30.00;60.50;;;;;;6097590;23;20033;-68
2022/08/17 11:51:32;;;;;;;15.27;4.88;;;30.00;60.30;;;;;;6097639;23;20045;-67
2022/08/17 11:52:36;;;;;;;9.98;3.95;;;30.10;60.60;;;;;;6097513;23;20109;-67
2022/08/17 11:55:04;;;;;;;11.95;4.30;;;30.10;60.70;;;;;;6097459;23;20011;-68
2022/08/17 11:57:29;;;;;;;12.50;4.35;;;30.10;60.70;;;;;;6097529;23;20007;-68
2022/08/17 11:59:57;;;;;;;7.30;3.70;;;30.10;60.50;;;;;;6097373;23;20329;-68
2022/08/17 12:02:31;;;;;;;14.75;4.60;;;30.10;60.60;;;;;;6097608;23;20330;-68
2022/08/17 12:05:26;;;;;;;12.57;3.92;;;30.00;60.50;;;;;;6097339;23;19998;-68
2022/08/17 12:08:14;;;;;;;8.93;3.83;;;30.00;60.70;;;;;;6097433;23;20009;-67
2022/08/17 12:11:02;;;;;;;11.60;4.05;;;30.10;60.70;;;;;;6097623;23;20021;-68
2022/08/17 12:13:31;;;;;;;13.40;4.20;;;30.10;61.30;;;;;;6097387;23;20010;-68
2022/08/17 12:15:57;;;;;;;17.88;4.68;;;30.20;60.30;;;;;;6097556;23;20002;-67
2022/08/17 12:18:31;;;;;;;9.15;3.33;;;30.20;60.10;;;;;;6095846;23;20002;-67
2022/08/17 12:21:12;;;;;;;12.25;3.78;;;30.30;59.80;;;;;;6097473;23;20011;-67
2022/08/17 12:24:09;;;;;;;10.55;3.92;;;30.30;59.50;;;;;;6097406;23;20009;-68
2022/08/17 12:26:36;;;;;;;18.40;4.35;;;30.30;59.20;;;;;;6117656;23;20025;-68
2022/08/17 12:29:05;;;;;;;9.27;3.63;;;30.30;59.10;;;;;;6126277;23;20081;-67
2022/08/17 12:31:52;;;;;;;13.05;4.65;;;30.30;59.10;;;;;;6126451;23;20038;-68
2022/08/17 12:34:34;;;;;;;9.38;3.47;;;30.30;59.10;;;;;;6126605;23;20017;-68
2022/08/17 12:37:05;;;;;;;12.38;3.78;;;30.30;58.80;;;;;;6126154;23;20374;-68
2022/08/17 12:39:31;;;;;;;12.68;3.65;;;30.30;58.40;;;;;;6126401;23;20437;-68
2022/08/17 12:41:59;;;;;;;11.98;4.00;;;30.30;58.00;;;;;;6126242;23;20005;-67
2022/08/17 12:44:35;;;;;;;18.92;3.72;;;30.40;57.90;;;;;;6126146;23;20005;-67
2022/08/17 12:47:09;;;;;;;17.15;3.80;;;30.40;57.50;;;;;;6126324;23;20034;-68
2022/08/17 12:49:41;;;;;;;10.25;3.95;;;30.40;57.20;;;;;;6126390;23;20045;-68
2022/08/17 12:52:12;;;;;;;;;;;30.40;57.50;;;;;;6126521;23;20010;-68
2022/08/17 12:54:38;;;;;;;9.40;3.30;;;30.50;57.70;;;;;;6126352;23;20174;-68
2022/08/17 12:57:13;;;;;;;13.88;3.30;;;30.50;57.60;;;;;;6126218;23;20005;-67
2022/08/17 12:59:41;;;;;;;9.15;3.67;;;30.50;56.70;;;;;;6125930;23;20062;-68
2022/08/17 13:02:20;;;;;;;12.57;3.28;;;30.50;56.50;;;;;;6126259;23;20012;-68
2022/08/17 13:04:46;;;;;;;6.57;2.92;;;30.60;56.80;;;;;;6126279;23;20025;-68
2022/08/17 13:07:25;;;;;;;13.23;3.38;;;30.60;57.00;;;;;;6126129;23;20005;-67
2022/08/17 13:09:51;;;;;;;12.48;3.30;;;30.70;57.10;;;;;;6126120;23;20010;-67
2022/08/17 13:12:25;;;;;;;12.07;3.83;;;30.70;56.90;;;;;;6126071;23;20006;-74
2022/08/17 13:14:51;;;;;;;13.10;3.28;;;30.70;56.80;;;;;;6126354;23;20006;-68
2022/08/17 13:17:26;;;;;;;12.20;3.47;;;30.70;56.50;;;;;;6125758;23;20016;-68
2022/08/17 13:19:52;;;;;;;10.52;3.08;;;30.70;56.60;;;;;;6126114;23;20005;-68
2022/08/17 13:22:22;;;;;;;10.82;3.35;;;30.70;56.80;;;;;;6126049;23;20421;-67
2022/08/17 13:24:54;;;;;;;10.02;3.30;;;30.70;56.60;;;;;;6126143;23;20010;-68
2022/08/17 13:27:23;;;;;;;9.63;3.20;;;30.80;56.50;;;;;;6126011;23;20018;-68
2022/08/17 13:29:54;;;;;;;14.60;3.88;;;30.80;56.40;;;;;;6125785;23;20053;-68
2022/08/17 13:32:24;;;;;;;;;;;30.80;56.50;;;;;;6126528;23;20089;-69
2022/08/17 13:34:52;;;;;;;11.98;3.47;;;30.80;56.40;;;;;;6126177;23;19960;-68
2022/08/17 13:37:39;;;;;;;16.20;4.47;;;30.80;56.30;;;;;;6126237;23;19998;-68
2022/08/17 13:40:08;;;;;;;9.20;2.83;;;30.80;56.00;;;;;;6126019;23;20005;-68
2022/08/17 13:42:38;;;;;;;7.18;2.95;;;30.90;56.10;;;;;;6125993;23;20129;-70
2022/08/17 13:45:29;;;;;;;7.13;2.90;;;30.90;55.90;;;;;;6126392;23;20081;-68
2022/08/17 13:48:10;;;;;;;;;;;30.90;55.70;;;;;;6126751;23;20006;-67
2022/08/17 13:50:39;;;;;;;12.98;3.88;;;30.90;55.80;;;;;;6128196;23;19932;-72
2022/08/17 13:53:30;;;;;;;9.93;3.20;;;30.90;55.70;;;;;;6127784;23;20515;-68
2022/08/17 13:56:08;;;;;;;6.88;3.15;;;30.90;55.70;;;;;;6127593;23;20001;-68
2022/08/17 13:58:54;;;;;;;12.75;3.20;;;31.00;55.90;;;;;;6127636;23;20441;-74
2022/08/17 14:01:28;;;;;;;7.97;3.00;;;31.00;55.30;;;;;;6127833;23;20006;-68
2022/08/17 14:03:55;;;;;;;11.07;3.20;;;31.00;55.30;;;;;;6127742;23;20064;-68
2022/08/17 14:06:23;;;;;;;8.50;3.28;;;31.10;55.20;;;;;;6127834;23;20274;-68
2022/08/17 14:08:52;;;;;;;10.13;3.42;;;31.10;55.00;;;;;;6127799;23;20009;-68
2022/08/17 14:11:20;;;;;;;10.32;3.42;;;31.00;55.10;;;;;;6128224;23;20306;-68
2022/08/17 14:13:45;;;;;;;9.90;3.35;;;31.00;55.00;;;;;;6127616;23;20105;-67
2022/08/17 14:16:11;;;;;;;6.53;3.00;;;31.00;54.40;;;;;;6127614;23;20040;-67
2022/08/17 14:18:37;;;;;;;10.38;2.65;;;31.10;53.80;;;;;;6127413;23;20002;-68
2022/08/17 14:21:03;;;;;;;12.52;3.45;;;31.10;53.70;;;;;;6127264;23;20326;-69
2022/08/17 14:23:30;;;;;;;9.02;3.47;;;31.10;53.70;;;;;;6127568;23;20026;-68
2022/08/17 14:25:56;;;;;;;12.57;3.35;;;31.10;53.30;;;;;;6127418;23;20093;-68
2022/08/17 14:28:22;;;;;;;11.07;3.58;;;31.10;53.40;;;;;;6127955;23;20038;-68
2022/08/17 14:30:49;;;;;;;12.20;3.67;;;31.20;53.60;;;;;;6127357;23;20443;-68
2022/08/17 14:33:18;;;;;;;11.00;3.47;;;31.10;53.70;;;;;;6127425;23;20022;-68
2022/08/17 14:35:46;;;;;;;7.38;2.95;;;31.20;53.80;;;;;;6127599;23;20073;-68